Time;durP1;ratioP1;P1;durP2;ratioP2;P2;SDS_P1;SDS_P2;PMS_P1;PMS_P2;Temp;Humidity;BMP_temperature;BMP_pressure;BME280_temperature;BME280_humidity;BME280_pressure;Samples;Min_cycle;Max_cycle;Signal;HPM_P1;HPM_P2
2022/04/14 00:01:35;;;;;;;4.80;2.80;;;;;;;;;;4972846;28;20054;-65
2022/04/14 00:04:06;;;;;;;8.38;2.28;;;;;;;;;;4972273;28;20046;-66
2022/04/14 00:06:37;;;;;;;7.22;2.60;;;;;;;;;;4937484;29;20059;-65
2022/04/14 00:09:08;;;;;;;5.90;2.42;;;;;;;;;;4952739;29;20654;-67
2022/04/14 00:11:39;;;;;;;5.22;2.72;;;;;;;;;;4947770;28;20054;-66
2022/04/14 00:14:09;;;;;;;7.78;2.40;;;;;;;;;;4972251;28;20061;-65
2022/04/14 00:16:40;;;;;;;10.13;2.80;;;;;;;;;;4952823;28;20058;-65
2022/04/14 00:19:11;;;;;;;5.55;2.55;;;;;;;;;;4952810;28;20062;-66
2022/04/14 00:25:28;;;;;;;5.88;2.30;;;;;;;;;;4953422;28;20055;-65
2022/04/14 00:27:59;;;;;;;9.75;2.70;;;;;;;;;;4975285;28;20066;-66
2022/04/14 00:30:29;;;;;;;5.85;2.72;;;;;;;;;;4991293;28;20050;-66
2022/04/14 00:33:01;;;;;;;4.82;2.80;;;;;;;;;;4991971;28;20065;-65
2022/04/14 00:35:32;;;;;;;9.73;3.33;;;;;;;;;;4908243;28;20051;-65
2022/04/14 00:38:03;;;;;;;7.70;3.00;;;;;;;;;;4952354;29;20415;-65
2022/04/14 00:40:34;;;;;;;8.60;2.53;;;;;;;;;;4952446;29;20419;-66
2022/04/14 00:43:05;;;;;;;6.63;2.67;;;;;;;;;;4953589;28;20043;-65
2022/04/14 00:45:35;;;;;;;8.85;3.22;;;;;;;;;;4991268;28;20050;-65
2022/04/14 00:48:06;;;;;;;6.90;2.63;;;;;;;;;;4990935;28;20054;-65
2022/04/14 00:50:38;;;;;;;7.55;3.20;;;;;;;;;;4990968;28;20054;-66
2022/04/14 00:53:09;;;;;;;8.57;3.08;;;;;;;;;;4958905;28;20518;-65
2022/04/14 00:55:40;;;;;;;7.22;2.83;;;;;;;;;;5010422;28;20064;-66
2022/04/14 00:58:11;;;;;;;5.38;2.72;;;;;;;;;;4977873;28;20061;-66
2022/04/14 01:00:42;;;;;;;7.78;3.10;;;;;;;;;;5010425;28;20058;-66
2022/04/14 01:03:13;;;;;;;5.75;3.00;;;;;;;;;;4954295;28;20124;-65
2022/04/14 01:05:46;;;;;;;7.68;2.88;;;;;;;;;;4971206;28;20058;-66
2022/04/14 01:08:17;;;;;;;;;;;;;;;;;;4955196;28;20410;-66
2022/04/14 01:10:50;;;;;;;6.15;2.72;;;;;;;;;;4971398;28;19921;-66
2022/04/14 01:13:21;;;;;;;7.65;3.03;;;;;;;;;;4993406;28;20085;-65
2022/04/14 01:15:58;;;;;;;14.25;3.03;;;;;;;;;;4998384;28;20077;-66
2022/04/14 01:18:29;;;;;;;8.95;2.90;;;;;;;;;;4958176;28;20047;-66
2022/04/14 01:20:59;;;;;;;6.70;2.85;;;;;;;;;;5014672;28;20049;-65
2022/04/14 01:23:43;;;;;;;8.52;2.90;;;;;;;;;;5013720;28;20429;-66
2022/04/14 01:26:14;;;;;;;4.78;2.67;;;;;;;;;;5029622;28;20053;-65
2022/04/14 01:28:45;;;;;;;8.23;3.17;;;;;;;;;;5029751;28;20061;-65
2022/04/14 01:31:16;;;;;;;6.28;2.92;;;;;;;;;;5029700;28;20512;-65
2022/04/14 01:33:46;;;;;;;4.45;2.65;;;;;;;;;;5029120;28;20061;-65
2022/04/14 01:36:16;;;;;;;5.75;2.85;;;;;;;;;;5013076;28;20057;-65
2022/04/14 01:38:48;;;;;;;6.40;3.40;;;;;;;;;;5029444;28;20049;-65
2022/04/14 01:41:18;;;;;;;8.75;2.97;;;;;;;;;;5024432;28;20053;-65
2022/04/14 01:43:49;;;;;;;5.70;2.88;;;;;;;;;;5071602;28;20370;-65
2022/04/14 01:46:19;;;;;;;10.57;3.10;;;;;;;;;;5071517;28;20040;-67
2022/04/14 01:48:50;;;;;;;9.45;3.25;;;;;;;;;;5021166;28;20527;-65
2022/04/14 01:51:21;;;;;;;8.95;3.20;;;;;;;;;;5071615;28;20045;-65
2022/04/14 01:53:51;;;;;;;6.53;3.00;;;;;;;;;;5020057;28;20053;-66
2022/04/14 01:56:22;;;;;;;7.65;3.25;;;;;;;;;;5071504;28;20045;-66
2022/04/14 01:58:53;;;;;;;6.13;2.75;;;;;;;;;;5071604;28;20053;-65
2022/04/14 02:01:24;;;;;;;9.52;3.13;;;;;;;;;;5071417;28;20052;-65
2022/04/14 02:03:54;;;;;;;7.57;3.30;;;;;;;;;;5015389;28;20421;-66
2022/04/14 02:06:25;;;;;;;9.50;2.90;;;;;;;;;;4993284;28;20506;-66
2022/04/14 02:08:56;;;;;;;10.73;3.28;;;;;;;;;;5009455;28;20049;-65
2022/04/14 02:11:27;;;;;;;11.68;3.40;;;;;;;;;;5009238;28;20092;-65
2022/04/14 02:13:58;;;;;;;8.07;3.08;;;;;;;;;;5009343;28;20058;-66
2022/04/14 02:16:28;;;;;;;11.13;3.10;;;;;;;;;;5009214;28;20073;-66
2022/04/14 02:18:59;;;;;;;8.02;3.10;;;;;;;;;;5008924;28;20458;-66
2022/04/14 02:21:30;;;;;;;7.40;3.13;;;;;;;;;;5009138;28;20054;-66
2022/04/14 02:24:00;;;;;;;8.32;2.95;;;;;;;;;;5008913;28;20053;-66
2022/04/14 02:26:31;;;;;;;12.07;3.08;;;;;;;;;;5009174;28;20545;-66
2022/04/14 02:29:02;;;;;;;6.03;3.42;;;;;;;;;;5009118;28;20058;-66
2022/04/14 02:31:32;;;;;;;10.93;3.45;;;;;;;;;;5009251;28;20065;-66
2022/04/14 02:34:03;;;;;;;7.68;3.30;;;;;;;;;;4989186;28;20050;-66
2022/04/14 02:36:33;;;;;;;7.43;3.45;;;;;;;;;;4973024;28;20069;-66
2022/04/14 02:39:04;;;;;;;9.95;3.03;;;;;;;;;;4989536;28;20061;-66
2022/04/14 02:41:35;;;;;;;11.73;3.15;;;;;;;;;;4967262;28;20062;-66
2022/04/14 02:44:05;;;;;;;7.03;3.55;;;;;;;;;;4971793;28;20054;-67
2022/04/14 02:46:35;;;;;;;9.02;3.55;;;;;;;;;;5032758;28;20060;-66
2022/04/14 02:49:07;;;;;;;8.27;3.05;;;;;;;;;;5032855;28;20057;-66
2022/04/14 02:51:38;;;;;;;10.00;3.53;;;;;;;;;;4999692;28;20049;-66
2022/04/14 02:54:08;;;;;;;8.32;3.65;;;;;;;;;;5032534;28;20054;-66
2022/04/14 02:56:38;;;;;;;8.90;3.60;;;;;;;;;;4999749;28;20053;-65
2022/04/14 02:59:09;;;;;;;7.47;3.30;;;;;;;;;;5032242;28;20053;-68
2022/04/14 03:01:40;;;;;;;7.78;3.35;;;;;;;;;;5032526;28;20057;-66
2022/04/14 03:04:11;;;;;;;10.57;3.33;;;;;;;;;;5032234;28;20053;-66
2022/04/14 03:06:41;;;;;;;7.07;3.15;;;;;;;;;;5032595;28;20049;-65
2022/04/14 03:09:12;;;;;;;6.63;3.05;;;;;;;;;;5015975;28;20111;-66
2022/04/14 03:11:42;;;;;;;8.52;2.97;;;;;;;;;;5053871;28;20052;-66
2022/04/14 03:14:13;;;;;;;5.57;3.05;;;;;;;;;;5057035;28;20052;-65
2022/04/14 03:16:43;;;;;;;8.52;3.25;;;;;;;;;;5039262;28;20048;-65
2022/04/14 03:19:14;;;;;;;7.47;2.88;;;;;;;;;;5074210;28;20057;-65
2022/04/14 03:21:46;;;;;;;7.82;3.63;;;;;;;;;;5074500;28;20048;-65
2022/04/14 03:24:17;;;;;;;7.15;3.35;;;;;;;;;;5057257;28;20392;-66
2022/04/14 03:26:48;;;;;;;8.05;2.72;;;;;;;;;;5074353;28;20400;-65
2022/04/14 03:29:18;;;;;;;5.47;3.03;;;;;;;;;;5022565;28;20064;-65
2022/04/14 03:31:49;;;;;;;7.32;3.42;;;;;;;;;;5038803;28;20052;-66
2022/04/14 03:34:20;;;;;;;8.35;2.95;;;;;;;;;;5023457;28;20049;-66
2022/04/14 03:36:50;;;;;;;5.75;3.03;;;;;;;;;;5055392;28;20067;-65
2022/04/14 03:39:21;;;;;;;9.82;3.00;;;;;;;;;;5056569;28;20489;-66
2022/04/14 03:41:53;;;;;;;7.35;3.00;;;;;;;;;;5039631;28;20056;-65
2022/04/14 03:44:24;;;;;;;9.13;2.95;;;;;;;;;;5038814;28;20048;-65
2022/04/14 03:46:54;;;;;;;5.85;2.97;;;;;;;;;;5031573;28;20425;-66
2022/04/14 03:49:25;;;;;;;6.75;3.00;;;;;;;;;;4982650;28;20501;-66
2022/04/14 03:51:55;;;;;;;7.13;2.83;;;;;;;;;;5031856;28;20771;-66
2022/04/14 03:54:26;;;;;;;7.10;3.08;;;;;;;;;;5031361;28;20049;-65
2022/04/14 03:56:57;;;;;;;6.05;2.90;;;;;;;;;;5031031;28;20053;-66
2022/04/14 03:59:27;;;;;;;9.65;2.70;;;;;;;;;;5031404;28;20397;-66
2022/04/14 04:01:58;;;;;;;8.38;2.85;;;;;;;;;;5031617;28;20046;-66
2022/04/14 04:04:31;;;;;;;6.00;2.53;;;;;;;;;;4991520;28;20057;-66
2022/04/14 04:07:01;;;;;;;7.38;2.80;;;;;;;;;;4991819;28;20062;-66
2022/04/14 04:09:33;;;;;;;9.32;2.70;;;;;;;;;;4991561;28;20046;-66
2022/04/14 04:12:04;;;;;;;6.45;2.55;;;;;;;;;;4991992;28;20518;-65
2022/04/14 04:14:35;;;;;;;6.90;2.95;;;;;;;;;;4991675;28;20049;-66
2022/04/14 04:17:05;;;;;;;7.40;3.03;;;;;;;;;;4952677;28;20051;-66
2022/04/14 04:19:38;;;;;;;10.02;2.95;;;;;;;;;;4952987;28;20054;-66
2022/04/14 04:22:12;;;;;;;6.00;2.50;;;;;;;;;;4886486;29;20057;-66
2022/04/14 04:24:42;;;;;;;6.57;2.53;;;;;;;;;;4944553;29;20435;-65
2022/04/14 04:27:13;;;;;;;7.63;2.25;;;;;;;;;;4933844;29;20056;-65
2022/04/14 04:29:43;;;;;;;4.55;2.22;;;;;;;;;;4933570;29;20062;-66
2022/04/14 04:32:14;;;;;;;6.55;2.78;;;;;;;;;;4949103;28;20174;-66
2022/04/14 04:34:45;;;;;;;8.32;2.60;;;;;;;;;;4933472;29;20059;-66
2022/04/14 04:37:15;;;;;;;8.70;2.80;;;;;;;;;;4933693;29;20070;-67
2022/04/14 04:39:46;;;;;;;6.22;2.35;;;;;;;;;;4933370;29;20066;-66
2022/04/14 04:42:17;;;;;;;6.40;2.80;;;;;;;;;;4943983;29;20055;-66
2022/04/14 04:44:48;;;;;;;6.93;2.55;;;;;;;;;;4968164;28;20613;-66
2022/04/14 04:47:22;;;;;;;8.13;2.40;;;;;;;;;;4952473;29;20055;-66
2022/04/14 04:49:56;;;;;;;5.55;2.33;;;;;;;;;;4952390;29;20067;-67
2022/04/14 04:52:26;;;;;;;7.68;2.40;;;;;;;;;;4939173;28;20070;-66
2022/04/14 04:54:57;;;;;;;4.00;2.00;;;;;;;;;;4994675;28;20073;-66
2022/04/14 04:57:27;;;;;;;7.47;2.63;;;;;;;;;;4994303;28;20513;-66
2022/04/14 04:59:58;;;;;;;7.20;2.33;;;;;;;;;;4971163;28;20054;-66
2022/04/14 05:02:29;;;;;;;5.78;2.33;;;;;;;;;;4971652;28;20059;-67
2022/04/14 05:04:59;;;;;;;6.20;2.40;;;;;;;;;;4993984;28;20063;-67
2022/04/14 05:07:31;;;;;;;6.45;2.35;;;;;;;;;;5009719;28;20077;-66
2022/04/14 05:10:02;;;;;;;5.90;2.30;;;;;;;;;;4977276;28;20058;-68
2022/04/14 05:12:33;;;;;;;7.00;2.10;;;;;;;;;;4978432;28;20057;-66
2022/04/14 05:15:04;;;;;;;7.05;2.45;;;;;;;;;;5010224;28;20054;-66
2022/04/14 05:17:34;;;;;;;6.18;2.30;;;;;;;;;;4973984;28;20058;-66
2022/04/14 05:20:06;;;;;;;9.77;2.50;;;;;;;;;;4970546;28;20055;-66
2022/04/14 05:22:37;;;;;;;5.35;2.35;;;;;;;;;;4923497;28;20063;-67
2022/04/14 05:25:08;;;;;;;4.72;2.10;;;;;;;;;;4970812;28;20043;-66
2022/04/14 05:27:39;;;;;;;9.80;2.53;;;;;;;;;;4970963;28;20050;-66
2022/04/14 05:30:11;;;;;;;6.95;2.13;;;;;;;;;;4951423;28;20051;-66
2022/04/14 05:32:42;;;;;;;5.95;2.72;;;;;;;;;;4936443;28;20496;-67
2022/04/14 05:35:12;;;;;;;13.50;2.55;;;;;;;;;;4932097;29;20047;-66
2022/04/14 05:37:42;;;;;;;6.75;2.42;;;;;;;;;;4926596;28;20147;-66
2022/04/14 05:40:13;;;;;;;6.70;2.63;;;;;;;;;;4913265;29;20060;-66
2022/04/14 05:42:47;;;;;;;5.45;1.85;;;;;;;;;;4913356;29;20052;-65
2022/04/14 05:45:19;;;;;;;6.63;2.40;;;;;;;;;;4912859;29;20394;-66
2022/04/14 05:47:49;;;;;;;6.88;2.08;;;;;;;;;;4881735;29;20060;-66
2022/04/14 05:50:20;;;;;;;7.05;2.50;;;;;;;;;;4913374;29;20059;-66
2022/04/14 05:52:51;;;;;;;7.50;2.17;;;;;;;;;;4913176;29;20052;-67
2022/04/14 05:55:21;;;;;;;5.20;2.53;;;;;;;;;;4902511;29;20065;-67
2022/04/14 05:57:52;;;;;;;8.20;2.20;;;;;;;;;;4915771;29;20071;-66
2022/04/14 06:00:23;;;;;;;5.65;2.20;;;;;;;;;;4932013;29;20523;-66
2022/04/14 06:02:54;;;;;;;4.72;2.08;;;;;;;;;;4932140;29;20051;-66
2022/04/14 06:05:25;;;;;;;8.18;2.05;;;;;;;;;;4931620;29;20048;-66
2022/04/14 06:07:56;;;;;;;5.55;2.53;;;;;;;;;;4942265;29;20078;-67
2022/04/14 06:10:28;;;;;;;5.32;2.30;;;;;;;;;;4951092;29;20063;-67
2022/04/14 06:12:59;;;;;;;8.07;2.05;;;;;;;;;;4972573;28;20058;-67
2022/04/14 06:15:31;;;;;;;5.93;2.50;;;;;;;;;;4989859;28;20050;-66
2022/04/14 06:18:01;;;;;;;5.88;2.22;;;;;;;;;;4975916;28;20129;-66
2022/04/14 06:20:32;;;;;;;11.55;2.95;;;;;;;;;;5066974;28;20075;-66
2022/04/14 06:23:04;;;;;;;8.07;2.88;;;;;;;;;;5036384;28;20057;-66
2022/04/14 06:25:35;;;;;;;8.07;2.55;;;;;;;;;;5068804;28;20045;-67
2022/04/14 06:28:07;;;;;;;13.85;3.25;;;;;;;;;;5028819;28;20061;-66
2022/04/14 06:30:38;;;;;;;15.57;2.78;;;;;;;;;;5028503;28;20501;-67
2022/04/14 06:33:09;;;;;;;14.02;2.50;;;;;;;;;;5029009;28;20532;-66
2022/04/14 06:35:40;;;;;;;6.32;2.63;;;;;;;;;;5009349;28;20062;-67
2022/04/14 06:38:10;;;;;;;5.45;2.38;;;;;;;;;;5009286;28;20564;-66
2022/04/14 06:40:48;;;;;;;7.72;2.65;;;;;;;;;;4992607;28;20050;-67
2022/04/14 06:43:19;;;;;;;7.95;2.28;;;;;;;;;;4997217;28;20050;-66
2022/04/14 06:45:49;;;;;;;7.10;2.80;;;;;;;;;;4989322;28;20050;-66
2022/04/14 06:48:20;;;;;;;20.60;2.35;;;;;;;;;;4989477;28;20059;-66
2022/04/14 06:50:51;;;;;;;6.13;2.28;;;;;;;;;;4989294;28;20665;-67
2022/04/14 06:53:22;;;;;;;5.57;2.60;;;;;;;;;;4957339;28;20109;-67
2022/04/14 06:55:53;;;;;;;9.85;2.90;;;;;;;;;;4941167;28;20058;-69
2022/04/14 06:58:23;;;;;;;7.63;2.65;;;;;;;;;;4989483;28;20062;-67
2022/04/14 07:00:55;;;;;;;5.93;2.35;;;;;;;;;;4989300;28;20058;-67
2022/04/14 07:03:28;;;;;;;4.63;2.30;;;;;;;;;;4956999;28;20046;-67
2022/04/14 07:06:00;;;;;;;6.40;2.40;;;;;;;;;;4960822;28;20054;-67
2022/04/14 07:08:33;;;;;;;9.95;2.58;;;;;;;;;;5020494;28;20057;-67
2022/04/14 07:11:05;;;;;;;6.18;2.53;;;;;;;;;;5028410;28;20528;-67
2022/04/14 07:13:36;;;;;;;10.88;2.72;;;;;;;;;;5055184;28;20110;-67
2022/04/14 07:16:07;;;;;;;7.68;3.28;;;;;;;;;;5027889;28;20060;-66
2022/04/14 07:18:38;;;;;;;12.13;3.22;;;;;;;;;;5030868;28;20050;-67
2022/04/14 07:21:08;;;;;;;7.60;2.95;;;;;;;;;;5027947;28;20174;-67
2022/04/14 07:23:39;;;;;;;7.95;2.95;;;;;;;;;;5028463;28;20065;-67
2022/04/14 07:26:10;;;;;;;14.55;2.97;;;;;;;;;;5012193;28;20447;-66
2022/04/14 07:28:40;;;;;;;7.60;3.25;;;;;;;;;;4995503;28;20049;-67
2022/04/14 07:31:11;;;;;;;8.98;2.95;;;;;;;;;;5029081;28;20045;-66
2022/04/14 07:33:42;;;;;;;7.60;3.15;;;;;;;;;;5015269;28;20049;-66
2022/04/14 07:36:18;;;;;;;14.75;3.00;;;;;;;;;;4982812;28;20057;-66
2022/04/14 07:39:04;;;;;;;11.63;2.90;;;;;;;;;;5031850;28;20070;-66
2022/04/14 07:41:35;;;;;;;7.93;2.80;;;;;;;;;;4999057;28;20066;-66
2022/04/14 07:44:06;;;;;;;6.68;2.83;;;;;;;;;;5031509;28;20429;-66
2022/04/14 07:46:38;;;;;;;7.78;2.85;;;;;;;;;;5031495;28;20050;-66
2022/04/14 07:49:09;;;;;;;7.90;2.95;;;;;;;;;;5031754;28;20057;-66
2022/04/14 07:51:42;;;;;;;9.85;2.85;;;;;;;;;;5031360;28;20068;-66
2022/04/14 07:54:13;;;;;;;8.48;3.28;;;;;;;;;;5045391;28;20092;-66
2022/04/14 07:56:44;;;;;;;7.57;2.45;;;;;;;;;;5051461;28;20057;-66
2022/04/14 07:59:15;;;;;;;7.95;2.85;;;;;;;;;;5033502;28;20053;-65
2022/04/14 08:01:46;;;;;;;8.20;3.53;;;;;;;;;;5071106;28;20520;-66
2022/04/14 08:04:16;;;;;;;7.40;3.20;;;;;;;;;;5054956;28;20044;-66
2022/04/14 08:06:47;;;;;;;7.28;3.00;;;;;;;;;;5071316;28;20045;-65
2022/04/14 08:09:38;;;;;;;7.30;2.92;;;;;;;;;;5071343;28;20068;-66
2022/04/14 08:12:09;;;;;;;6.75;2.60;;;;;;;;;;5071098;28;20187;-66
2022/04/14 08:14:40;;;;;;;7.78;3.35;;;;;;;;;;5071029;28;20052;-67
2022/04/14 08:17:11;;;;;;;8.90;2.80;;;;;;;;;;5070979;28;20044;-65
2022/04/14 08:19:41;;;;;;;8.65;3.22;;;;;;;;;;5070909;28;20056;-65
2022/04/14 08:22:13;;;;;;;9.65;3.60;;;;;;;;;;5034498;28;20456;-66
2022/04/14 08:24:47;;;;;;;7.95;3.45;;;;;;;;;;5051149;28;20091;-66
2022/04/14 08:27:18;;;;;;;9.00;3.55;;;;;;;;;;5018122;28;20394;-66
2022/04/14 08:29:49;;;;;;;8.70;4.10;;;;;;;;;;5018475;28;20053;-66
2022/04/14 08:32:19;;;;;;;14.63;4.40;;;;;;;;;;4994292;28;20050;-66
2022/04/14 08:34:50;;;;;;;9.35;4.13;;;;;;;;;;5011056;28;20058;-66
2022/04/14 08:37:21;;;;;;;12.45;4.75;;;;;;;;;;5011034;28;20062;-65
2022/04/14 08:39:51;;;;;;;10.50;4.50;;;;;;;;;;5010945;28;20054;-65
2022/04/14 08:42:31;;;;;;;12.40;5.00;;;;;;;;;;4990553;28;20050;-66
2022/04/14 08:45:03;;;;;;;7.60;3.90;;;;;;;;;;4974980;28;20054;-67
2022/04/14 08:47:42;;;;;;;13.65;4.15;;;;;;;;;;4991039;28;20066;-66
2022/04/14 08:50:13;;;;;;;11.07;3.92;;;;;;;;;;4971280;28;20054;-66
2022/04/14 08:52:44;;;;;;;10.05;4.07;;;;;;;;;;4990697;28;20046;-66
2022/04/14 08:55:14;;;;;;;7.63;4.10;;;;;;;;;;4958443;28;20058;-66
2022/04/14 08:57:46;;;;;;;9.30;4.00;;;;;;;;;;4990874;28;20058;-66
2022/04/14 09:00:17;;;;;;;7.35;4.53;;;;;;;;;;4958452;28;20546;-65
2022/04/14 09:02:51;;;;;;;11.68;4.15;;;;;;;;;;4951963;28;20062;-65
2022/04/14 09:05:21;;;;;;;8.80;3.90;;;;;;;;;;4952369;28;20047;-65
2022/04/14 09:07:53;;;;;;;8.88;3.67;;;;;;;;;;4935943;29;20532;-66
2022/04/14 09:10:23;;;;;;;7.00;3.95;;;;;;;;;;4984053;28;20046;-66
2022/04/14 09:12:54;;;;;;;9.40;4.13;;;;;;;;;;4951635;28;20054;-66
2022/04/14 09:15:25;;;;;;;7.85;3.60;;;;;;;;;;4951676;28;20062;-65
2022/04/14 09:17:58;;;;;;;6.68;3.58;;;;;;;;;;4921188;28;20071;-65
2022/04/14 09:20:34;;;;;;;14.60;3.92;;;;;;;;;;4932287;29;20052;-65
2022/04/14 09:23:28;;;;;;;9.07;4.25;;;;;;;;;;4932701;29;20412;-65
2022/04/14 09:26:13;;;;;;;6.20;3.50;;;;;;;;;;4932497;29;20067;-65
2022/04/14 09:29:05;;;;;;;8.07;3.58;;;;;;;;;;4932484;29;20075;-65
2022/04/14 09:31:47;;;;;;;7.38;3.00;;;;;;;;;;4951608;29;20055;-65
2022/04/14 09:34:38;;;;;;;8.25;4.05;;;;;;;;;;4951560;29;20066;-65
2022/04/14 09:37:09;;;;;;;9.32;3.42;;;;;;;;;;4955335;28;20055;-66
2022/04/14 09:40:02;;;;;;;8.85;3.55;;;;;;;;;;4938507;28;20046;-65
2022/04/14 09:42:35;;;;;;;8.27;3.65;;;;;;;;;;4970646;28;20574;-65
2022/04/14 09:45:19;;;;;;;7.72;3.78;;;;;;;;;;4970468;28;20046;-66
2022/04/14 09:48:09;;;;;;;9.13;3.38;;;;;;;;;;4970678;28;20059;-65
2022/04/14 09:50:48;;;;;;;10.27;3.83;;;;;;;;;;5002254;28;20057;-66
2022/04/14 09:53:19;;;;;;;11.07;3.50;;;;;;;;;;5029149;28;20049;-65
2022/04/14 09:55:52;;;;;;;10.15;3.45;;;;;;;;;;5029091;28;20048;-65
2022/04/14 09:58:27;;;;;;;6.25;3.05;;;;;;;;;;5054987;28;20083;-65
2022/04/14 10:00:59;;;;;;;7.70;3.92;;;;;;;;;;4996152;28;20050;-66
2022/04/14 10:03:30;;;;;;;;;;;;;;;;;;5029487;28;20393;-65
2022/04/14 10:06:10;;;;;;;11.43;3.88;;;;;;;;;;5028842;28;20424;-66
2022/04/14 10:08:51;;;;;;;9.27;3.63;;;;;;;;;;5029117;28;20057;-66
2022/04/14 10:11:30;;;;;;;10.93;3.75;;;;;;;;;;5028924;28;20053;-67
2022/04/14 10:14:23;;;;;;;11.68;4.03;;;;;;;;;;4996560;28;20049;-66
2022/04/14 10:16:54;;;;;;;5.97;3.22;;;;;;;;;;4995762;28;20393;-65
2022/04/14 10:19:25;;;;;;;13.15;4.10;;;;;;;;;;5012819;28;20065;-66
2022/04/14 10:21:57;;;;;;;9.82;3.53;;;;;;;;;;5028566;28;20544;-66
2022/04/14 10:24:29;;;;;;;10.38;3.38;;;;;;;;;;4995822;28;20100;-66
2022/04/14 10:27:02;;;;;;;7.75;3.75;;;;;;;;;;5011904;28;20049;-66
2022/04/14 10:29:33;;;;;;;8.55;3.67;;;;;;;;;;4979764;28;20045;-66
2022/04/14 10:32:05;;;;;;;10.65;3.65;;;;;;;;;;5028815;28;20061;-67
2022/04/14 10:34:37;;;;;;;9.50;3.47;;;;;;;;;;5028949;28;20081;-66
2022/04/14 10:37:11;;;;;;;7.55;3.28;;;;;;;;;;4997144;28;20060;-66
2022/04/14 10:39:46;;;;;;;7.75;3.40;;;;;;;;;;4951620;28;20051;-66
2022/04/14 10:42:24;;;;;;;10.38;4.10;;;;;;;;;;4969249;28;20062;-67
2022/04/14 10:44:56;;;;;;;6.82;3.42;;;;;;;;;;4918865;29;20582;-66
2022/04/14 10:47:55;;;;;;;8.00;3.45;;;;;;;;;;4888031;29;20058;-66
2022/04/14 10:50:30;;;;;;;9.57;2.92;;;;;;;;;;4918964;29;20052;-67
2022/04/14 10:53:21;;;;;;;8.45;2.70;;;;;;;;;;4950704;29;20059;-67
2022/04/14 10:55:51;;;;;;;6.30;3.10;;;;;;;;;;4950748;29;20050;-66
2022/04/14 10:58:27;;;;;;;12.07;4.82;;;;;;;;;;4951461;28;20492;-66
2022/04/14 11:00:58;;;;;;;7.57;2.97;;;;;;;;;;5008950;28;20522;-67
2022/04/14 11:03:52;;;;;;;12.23;3.17;;;;;;;;;;5008713;28;20445;-69
2022/04/14 11:06:41;;;;;;;7.82;3.53;;;;;;;;;;5010059;28;20042;-67
2022/04/14 11:09:39;;;;;;;6.85;2.83;;;;;;;;;;4997052;28;20046;-66
2022/04/14 11:12:13;;;;;;;5.47;2.67;;;;;;;;;;5012558;28;20533;-67
2022/04/14 11:14:45;;;;;;;6.20;2.80;;;;;;;;;;4996656;28;20429;-66
2022/04/14 11:17:53;;;;;;;11.57;3.42;;;;;;;;;;5041904;28;20539;-66
2022/04/14 11:20:37;;;;;;;6.82;2.92;;;;;;;;;;5074580;28;20057;-67
2022/04/14 11:23:21;;;;;;;8.82;3.40;;;;;;;;;;5074448;28;20052;-66
2022/04/14 11:26:06;;;;;;;8.23;3.42;;;;;;;;;;5074370;28;20048;-66
2022/04/14 11:28:46;;;;;;;6.32;2.80;;;;;;;;;;5031803;28;20053;-67
2022/04/14 11:31:19;;;;;;;6.05;3.50;;;;;;;;;;5032184;28;20061;-66
2022/04/14 11:33:52;;;;;;;8.38;4.10;;;;;;;;;;5031818;28;20428;-67
2022/04/14 11:36:26;;;;;;;7.55;3.60;;;;;;;;;;5031874;28;20450;-66
2022/04/14 11:39:04;;;;;;;8.10;3.53;;;;;;;;;;4998903;28;20489;-67
2022/04/14 11:41:39;;;;;;;6.20;2.67;;;;;;;;;;5031613;28;20049;-66
2022/04/14 11:44:12;;;;;;;8.57;2.85;;;;;;;;;;5031617;28;20061;-67
2022/04/14 11:46:51;;;;;;;7.55;2.75;;;;;;;;;;5031814;28;20080;-66
2022/04/14 11:49:29;;;;;;;5.50;2.97;;;;;;;;;;5031378;28;20052;-66
2022/04/14 11:52:02;;;;;;;7.82;3.60;;;;;;;;;;5031707;28;20046;-69
2022/04/14 11:54:38;;;;;;;6.82;3.00;;;;;;;;;;5031612;28;20386;-66
2022/04/14 11:57:13;;;;;;;8.35;3.00;;;;;;;;;;5031466;28;20049;-66
2022/04/14 11:59:44;;;;;;;4.88;2.72;;;;;;;;;;5031380;28;20068;-66
2022/04/14 12:02:18;;;;;;;7.93;2.80;;;;;;;;;;5031253;28;20068;-66
2022/04/14 12:04:51;;;;;;;9.30;3.17;;;;;;;;;;5031735;28;20053;-65
2022/04/14 12:07:30;;;;;;;4.75;2.53;;;;;;;;;;5031204;28;20069;-66
2022/04/14 12:10:09;;;;;;;6.70;2.50;;;;;;;;;;5011468;28;20058;-66
2022/04/14 12:12:40;;;;;;;4.68;2.60;;;;;;;;;;5011059;28;20042;-66
2022/04/14 12:15:10;;;;;;;5.22;2.63;;;;;;;;;;4991705;28;20062;-66
2022/04/14 12:17:41;;;;;;;4.55;2.40;;;;;;;;;;4991177;28;20069;-66
2022/04/14 12:20:12;;;;;;;5.75;2.42;;;;;;;;;;4971935;28;20055;-66
2022/04/14 12:22:43;;;;;;;7.40;2.60;;;;;;;;;;4972168;28;20059;-66
2022/04/14 12:25:14;;;;;;;6.97;2.55;;;;;;;;;;4917525;29;20047;-67
2022/04/14 12:27:48;;;;;;;6.15;2.33;;;;;;;;;;4901707;29;20064;-65
2022/04/14 12:30:22;;;;;;;4.68;2.25;;;;;;;;;;4933623;29;20472;-66
2022/04/14 12:33:01;;;;;;;4.65;2.38;;;;;;;;;;4933527;29;20420;-65
2022/04/14 12:35:42;;;;;;;6.45;2.30;;;;;;;;;;4933266;29;20409;-66
2022/04/14 12:38:24;;;;;;;6.78;2.00;;;;;;;;;;4933829;29;20067;-66
2022/04/14 12:40:54;;;;;;;4.47;1.75;;;;;;;;;;4933384;29;20063;-66
2022/04/14 12:43:28;;;;;;;6.15;2.28;;;;;;;;;;4932971;29;20059;-66
2022/04/14 12:45:59;;;;;;;3.88;1.85;;;;;;;;;;4933462;29;20528;-66
2022/04/14 12:48:38;;;;;;;8.27;3.17;;;;;;;;;;4917094;29;20056;-66
2022/04/14 12:51:08;;;;;;;;;;;;;;;;;;4933773;29;20424;-66
2022/04/14 12:53:38;;;;;;;4.97;1.98;;;;;;;;;;4949832;28;19923;-66
2022/04/14 12:56:15;;;;;;;4.60;1.15;;;;;;;;;;4952464;28;20052;-66
2022/04/14 12:59:20;;;;;;;6.35;1.58;;;;;;;;;;4969713;28;20054;-66
2022/04/14 13:02:01;;;;;;;4.60;1.52;;;;;;;;;;4944646;28;20054;-65
2022/04/14 13:04:35;;;;;;;2.83;1.20;;;;;;;;;;4990600;28;20055;-67
2022/04/14 13:07:14;;;;;;;4.40;1.60;;;;;;;;;;4942469;28;20595;-67
2022/04/14 13:10:03;;;;;;;;;;;;;;;;;;4960787;28;20626;-66
2022/04/14 13:12:45;;;;;;;4.72;1.75;;;;;;;;;;5000915;28;19928;-66
2022/04/14 13:15:17;;;;;;;3.45;1.40;;;;;;;;;;5029880;28;20068;-66
2022/04/14 13:17:48;;;;;;;2.45;1.10;;;;;;;;;;5030168;28;20053;-66
2022/04/14 13:20:23;;;;;;;2.63;1.55;;;;;;;;;;5029700;28;20057;-66
2022/04/14 13:22:53;;;;;;;4.00;1.40;;;;;;;;;;4982214;28;20513;-65
2022/04/14 13:25:24;;;;;;;2.90;1.40;;;;;;;;;;5009791;28;20057;-66
2022/04/14 13:27:54;;;;;;;3.42;1.95;;;;;;;;;;5010160;28;20057;-65
2022/04/14 13:30:27;;;;;;;4.47;1.20;;;;;;;;;;4992727;28;20461;-65
2022/04/14 13:32:58;;;;;;;3.50;1.48;;;;;;;;;;5009863;28;20049;-66
2022/04/14 13:35:28;;;;;;;2.55;1.35;;;;;;;;;;5009897;28;20050;-66
2022/04/14 13:37:59;;;;;;;3.08;1.95;;;;;;;;;;5010015;28;20073;-65
2022/04/14 13:40:31;;;;;;;2.72;1.45;;;;;;;;;;5009841;28;21132;-65
2022/04/14 13:43:01;;;;;;;3.53;1.40;;;;;;;;;;5043285;28;20413;-65
2022/04/14 13:45:31;;;;;;;3.33;1.60;;;;;;;;;;5032701;28;20053;-66
2022/04/14 13:48:02;;;;;;;4.70;1.67;;;;;;;;;;5049344;28;20563;-66
2022/04/14 13:50:35;;;;;;;4.30;1.70;;;;;;;;;;5049221;28;20064;-65
2022/04/14 13:53:07;;;;;;;3.05;1.45;;;;;;;;;;5049544;28;20049;-65
2022/04/14 13:55:37;;;;;;;;;;;;;;;;;;5049699;28;20448;-66
2022/04/14 13:58:07;;;;;;;2.45;1.20;;;;;;;;;;5049262;28;19932;-66
2022/04/14 14:00:38;;;;;;;2.53;1.15;;;;;;;;;;5049071;28;20041;-65
2022/04/14 14:03:08;;;;;;;2.47;0.85;;;;;;;;;;5061494;28;20504;-66
2022/04/14 14:05:39;;;;;;;2.35;0.95;;;;;;;;;;5037119;28;20060;-65
2022/04/14 14:08:10;;;;;;;4.03;1.33;;;;;;;;;;5036173;28;20056;-66
2022/04/14 14:10:43;;;;;;;2.90;1.25;;;;;;;;;;5071395;28;20051;-66
2022/04/14 14:13:18;;;;;;;4.53;1.38;;;;;;;;;;5028798;28;20060;-66
2022/04/14 14:15:52;;;;;;;3.70;1.52;;;;;;;;;;5028902;28;20557;-66
2022/04/14 14:18:22;;;;;;;2.83;1.50;;;;;;;;;;5028607;28;20112;-66
2022/04/14 14:20:54;;;;;;;1.98;0.80;;;;;;;;;;5028959;28;20045;-65
2022/04/14 14:23:25;;;;;;;1.98;0.90;;;;;;;;;;5029075;28;20053;-66
2022/04/14 14:25:56;;;;;;;2.85;1.23;;;;;;;;;;5028893;28;20045;-65
2022/04/14 14:28:27;;;;;;;3.75;1.05;;;;;;;;;;5028708;28;20046;-67
2022/04/14 14:30:58;;;;;;;2.05;0.93;;;;;;;;;;4979611;28;20057;-66
2022/04/14 14:33:33;;;;;;;6.03;1.00;;;;;;;;;;5028777;28;20497;-66
2022/04/14 14:36:04;;;;;;;4.95;1.15;;;;;;;;;;5028676;28;20063;-66
2022/04/14 14:38:35;;;;;;;3.88;1.10;;;;;;;;;;5028684;28;20057;-65
2022/04/14 14:41:06;;;;;;;3.78;1.52;;;;;;;;;;5031097;28;20046;-65
2022/04/14 14:43:39;;;;;;;2.20;1.25;;;;;;;;;;5032822;28;20053;-65
2022/04/14 14:46:09;;;;;;;4.40;1.08;;;;;;;;;;4983817;28;20058;-65
2022/04/14 14:48:40;;;;;;;1.65;0.70;;;;;;;;;;5032929;28;20060;-66
2022/04/14 14:51:11;;;;;;;5.32;1.52;;;;;;;;;;5032844;28;20053;-66
2022/04/14 14:53:41;;;;;;;3.88;1.13;;;;;;;;;;5032863;28;20157;-66
2022/04/14 14:56:12;;;;;;;1.95;1.10;;;;;;;;;;5018283;28;20046;-67
2022/04/14 15:01:32;;;;;;;2.63;1.00;;;;;;;;;;5023162;28;20040;-67
2022/04/14 15:04:04;;;;;;;1.98;1.00;;;;;;;;;;5075192;28;20045;-68
2022/04/14 15:06:34;;;;;;;1.40;1.00;;;;;;;;;;5074800;28;20045;-66
2022/04/14 15:09:05;;;;;;;1.88;0.73;;;;;;;;;;5039908;28;20061;-65
2022/04/14 15:11:37;;;;;;;1.42;0.88;;;;;;;;;;4999527;28;20452;-66
2022/04/14 15:14:09;;;;;;;1.95;1.15;;;;;;;;;;5012579;28;20081;-66
2022/04/14 15:16:39;;;;;;;1.40;0.73;;;;;;;;;;5012482;28;20064;-66
2022/04/14 15:19:10;;;;;;;3.95;0.75;;;;;;;;;;5012338;28;20073;-65
2022/04/14 15:21:40;;;;;;;2.05;0.85;;;;;;;;;;5012422;28;20053;-67
2022/04/14 15:24:11;;;;;;;3.15;0.98;;;;;;;;;;5012517;28;20405;-66